sensor_id;sensor_type;location;lat;lon;timestamp;temperature;humidity
20658;DHT22;10488;50.846;4.078;2022-07-05T05:55:02;18.40;99.90
20658;DHT22;10488;50.846;4.078;2022-07-05T05:57:31;19.30;99.90
20658;DHT22;10488;50.846;4.078;2022-07-05T05:59:57;19.90;99.90
20658;DHT22;10488;50.846;4.078;2022-07-05T06:02:31;19.20;99.90
20658;DHT22;10488;50.846;4.078;2022-07-05T06:04:57;19.40;99.90
20658;DHT22;10488;50.846;4.078;2022-07-05T06:07:22;19.90;99.90
20658;DHT22;10488;50.846;4.078;2022-07-05T06:09:48;20.70;99.90
20658;DHT22;10488;50.846;4.078;2022-07-05T06:12:14;20.90;99.90
20658;DHT22;10488;50.846;4.078;2022-07-05T06:14:40;21.80;99.90
20658;DHT22;10488;50.846;4.078;2022-07-05T06:17:05;21.50;99.90
20658;DHT22;10488;50.846;4.078;2022-07-05T06:19:31;21.20;99.90
20658;DHT22;10488;50.846;4.078;2022-07-05T06:21:57;21.40;99.90
20658;DHT22;10488;50.846;4.078;2022-07-05T06:24:22;21.70;99.90
20658;DHT22;10488;50.846;4.078;2022-07-05T06:26:48;21.60;99.90
20658;DHT22;10488;50.846;4.078;2022-07-05T06:29:13;22.00;99.90
20658;DHT22;10488;50.846;4.078;2022-07-05T06:31:39;22.70;99.90
20658;DHT22;10488;50.846;4.078;2022-07-05T06:34:05;22.40;99.90
20658;DHT22;10488;50.846;4.078;2022-07-05T06:36:30;22.20;99.90
20658;DHT22;10488;50.846;4.078;2022-07-05T06:38:56;23.20;99.90
20658;DHT22;10488;50.846;4.078;2022-07-05T06:41:21;22.50;99.90
20658;DHT22;10488;50.846;4.078;2022-07-05T06:43:47;22.90;99.90
20658;DHT22;10488;50.846;4.078;2022-07-05T06:46:13;22.40;99.90
20658;DHT22;10488;50.846;4.078;2022-07-05T06:48:38;21.30;99.90
20658;DHT22;10488;50.846;4.078;2022-07-05T06:51:04;22.10;99.90
20658;DHT22;10488;50.846;4.078;2022-07-05T06:53:30;22.20;99.90
20658;DHT22;10488;50.846;4.078;2022-07-05T06:55:56;21.80;99.90
20658;DHT22;10488;50.846;4.078;2022-07-05T06:58:22;22.30;99.90
20658;DHT22;10488;50.846;4.078;2022-07-05T07:00:48;22.70;99.90
20658;DHT22;10488;50.846;4.078;2022-07-05T07:03:13;22.50;99.90
20658;DHT22;10488;50.846;4.078;2022-07-05T07:05:39;22.10;99.90
20658;DHT22;10488;50.846;4.078;2022-07-05T07:08:05;23.10;99.90
20658;DHT22;10488;50.846;4.078;2022-07-05T07:10:49;23.80;99.90
20658;DHT22;10488;50.846;4.078;2022-07-05T07:13:15;23.70;99.90
20658;DHT22;10488;50.846;4.078;2022-07-05T07:15:40;24.30;99.90
20658;DHT22;10488;50.846;4.078;2022-07-05T07:18:06;24.70;99.90
20658;DHT22;10488;50.846;4.078;2022-07-05T07:20:32;24.90;99.90
20658;DHT22;10488;50.846;4.078;2022-07-05T07:22:58;25.40;99.90
20658;DHT22;10488;50.846;4.078;2022-07-05T07:25:24;23.90;99.90
20658;DHT22;10488;50.846;4.078;2022-07-05T07:27:54;24.00;99.90
20658;DHT22;10488;50.846;4.078;2022-07-05T07:30:23;23.30;99.90
20658;DHT22;10488;50.846;4.078;2022-07-05T07:32:48;23.20;99.90
20658;DHT22;10488;50.846;4.078;2022-07-05T07:35:14;22.20;99.90
20658;DHT22;10488;50.846;4.078;2022-07-05T07:37:40;22.30;99.90
20658;DHT22;10488;50.846;4.078;2022-07-05T07:40:08;22.20;99.90
20658;DHT22;10488;50.846;4.078;2022-07-05T07:42:34;22.00;99.90
20658;DHT22;10488;50.846;4.078;2022-07-05T07:44:59;22.10;99.90
20658;DHT22;10488;50.846;4.078;2022-07-05T07:47:29;22.00;99.90
20658;DHT22;10488;50.846;4.078;2022-07-05T07:49:55;22.30;99.90
20658;DHT22;10488;50.846;4.078;2022-07-05T07:52:21;22.90;99.90
20658;DHT22;10488;50.846;4.078;2022-07-05T07:54:46;23.60;99.90
20658;DHT22;10488;50.846;4.078;2022-07-05T07:57:12;23.80;99.90
20658;DHT22;10488;50.846;4.078;2022-07-05T07:59:38;23.60;99.90
20658;DHT22;10488;50.846;4.078;2022-07-05T08:02:04;23.60;99.90
20658;DHT22;10488;50.846;4.078;2022-07-05T08:04:29;23.70;99.90
20658;DHT22;10488;50.846;4.078;2022-07-05T08:06:55;23.60;99.90
20658;DHT22;10488;50.846;4.078;2022-07-05T08:09:21;24.10;99.90
20658;DHT22;10488;50.846;4.078;2022-07-05T08:11:47;23.90;99.90
20658;DHT22;10488;50.846;4.078;2022-07-05T08:14:16;23.50;99.90
20658;DHT22;10488;50.846;4.078;2022-07-05T08:16:42;24.10;99.90
20658;DHT22;10488;50.846;4.078;2022-07-05T08:19:08;24.00;99.90
20658;DHT22;10488;50.846;4.078;2022-07-05T08:21:53;24.40;99.90
20658;DHT22;10488;50.846;4.078;2022-07-05T08:24:18;25.30;99.90
20658;DHT22;10488;50.846;4.078;2022-07-05T08:26:44;25.20;99.90
20658;DHT22;10488;50.846;4.078;2022-07-05T08:29:12;25.30;99.90
20658;DHT22;10488;50.846;4.078;2022-07-05T08:31:48;25.50;99.90
20658;DHT22;10488;50.846;4.078;2022-07-05T08:34:15;25.30;99.90
20658;DHT22;10488;50.846;4.078;2022-07-05T08:36:43;25.70;99.90
20658;DHT22;10488;50.846;4.078;2022-07-05T08:39:34;24.90;99.90
20658;DHT22;10488;50.846;4.078;2022-07-05T08:42:10;24.60;99.90
20658;DHT22;10488;50.846;4.078;2022-07-05T08:44:38;24.80;99.90
20658;DHT22;10488;50.846;4.078;2022-07-05T08:47:08;24.70;99.90
20658;DHT22;10488;50.846;4.078;2022-07-05T08:49:34;25.20;99.90
20658;DHT22;10488;50.846;4.078;2022-07-05T08:52:11;25.10;99.90
20658;DHT22;10488;50.846;4.078;2022-07-05T08:54:49;25.30;99.90
20658;DHT22;10488;50.846;4.078;2022-07-05T08:57:16;25.70;99.90
20658;DHT22;10488;50.846;4.078;2022-07-05T08:59:42;25.40;99.90
20658;DHT22;10488;50.846;4.078;2022-07-05T09:02:11;25.30;99.90
20658;DHT22;10488;50.846;4.078;2022-07-05T09:04:42;25.70;99.90
20658;DHT22;10488;50.846;4.078;2022-07-05T09:07:10;26.00;99.90
20658;DHT22;10488;50.846;4.078;2022-07-05T09:09:39;25.60;99.90
20658;DHT22;10488;50.846;4.078;2022-07-05T09:12:10;26.00;99.90
20658;DHT22;10488;50.846;4.078;2022-07-05T09:14:36;25.80;99.90
20658;DHT22;10488;50.846;4.078;2022-07-05T09:17:02;25.50;99.90
20658;DHT22;10488;50.846;4.078;2022-07-05T09:19:28;25.40;99.90
20658;DHT22;10488;50.846;4.078;2022-07-05T09:22:03;24.50;99.90
20658;DHT22;10488;50.846;4.078;2022-07-05T09:24:29;24.30;99.90
20658;DHT22;10488;50.846;4.078;2022-07-05T09:27:02;23.80;99.90
20658;DHT22;10488;50.846;4.078;2022-07-05T09:29:29;23.70;99.90
20658;DHT22;10488;50.846;4.078;2022-07-05T09:31:55;24.80;99.90
20658;DHT22;10488;50.846;4.078;2022-07-05T09:34:21;25.40;99.90
20658;DHT22;10488;50.846;4.078;2022-07-05T09:36:58;26.30;99.90
20658;DHT22;10488;50.846;4.078;2022-07-05T09:42:18;25.80;99.90
20658;DHT22;10488;50.846;4.078;2022-07-05T09:44:55;25.30;99.90
20658;DHT22;10488;50.846;4.078;2022-07-05T09:47:27;25.20;99.90
20658;DHT22;10488;50.846;4.078;2022-07-05T09:49:59;25.90;99.90
20658;DHT22;10488;50.846;4.078;2022-07-05T09:52:40;25.90;99.90
20658;DHT22;10488;50.846;4.078;2022-07-05T09:57:39;26.90;99.90
20658;DHT22;10488;50.846;4.078;2022-07-05T10:00:16;26.20;99.90
20658;DHT22;10488;50.846;4.078;2022-07-05T10:02:50;26.50;99.90
20658;DHT22;10488;50.846;4.078;2022-07-05T10:05:27;25.10;99.90
20658;DHT22;10488;50.846;4.078;2022-07-05T10:07:57;24.40;99.90
20658;DHT22;10488;50.846;4.078;2022-07-05T10:12:51;25.20;99.90
20658;DHT22;10488;50.846;4.078;2022-07-05T10:15:20;25.10;99.90
20658;DHT22;10488;50.846;4.078;2022-07-05T10:17:56;25.30;99.90
20658;DHT22;10488;50.846;4.078;2022-07-05T10:20:45;25.40;99.90
20658;DHT22;10488;50.846;4.078;2022-07-05T10:23:16;25.50;99.90
20658;DHT22;10488;50.846;4.078;2022-07-05T10:25:46;25.80;99.90
20658;DHT22;10488;50.846;4.078;2022-07-05T10:28:14;26.20;99.90
20658;DHT22;10488;50.846;4.078;2022-07-05T10:30:40;25.90;99.90
20658;DHT22;10488;50.846;4.078;2022-07-05T10:33:07;25.80;99.90
20658;DHT22;10488;50.846;4.078;2022-07-05T10:35:34;25.80;99.90
20658;DHT22;10488;50.846;4.078;2022-07-05T10:38:01;25.20;99.90
20658;DHT22;10488;50.846;4.078;2022-07-05T10:40:29;25.20;99.90
20658;DHT22;10488;50.846;4.078;2022-07-05T10:42:59;24.80;99.90
20658;DHT22;10488;50.846;4.078;2022-07-05T10:53:29;24.50;99.90
20658;DHT22;10488;50.846;4.078;2022-07-05T10:56:15;24.60;99.90
20658;DHT22;10488;50.846;4.078;2022-07-05T10:58:45;24.40;99.90
20658;DHT22;10488;50.846;4.078;2022-07-05T11:03:53;24.80;99.90
20658;DHT22;10488;50.846;4.078;2022-07-05T11:06:24;24.40;99.90
20658;DHT22;10488;50.846;4.078;2022-07-05T11:11:37;24.00;99.90
20658;DHT22;10488;50.846;4.078;2022-07-05T11:14:05;24.70;99.90
20658;DHT22;10488;50.846;4.078;2022-07-05T11:19:59;24.60;99.90
20658;DHT22;10488;50.846;4.078;2022-07-05T11:22:25;24.30;99.90
20658;DHT22;10488;50.846;4.078;2022-07-05T11:24:51;24.00;99.90
20658;DHT22;10488;50.846;4.078;2022-07-05T11:27:17;24.10;99.90
20658;DHT22;10488;50.846;4.078;2022-07-05T11:29:48;24.60;99.90
20658;DHT22;10488;50.846;4.078;2022-07-05T11:34:44;24.40;99.90
20658;DHT22;10488;50.846;4.078;2022-07-05T11:39:43;24.30;99.90
20658;DHT22;10488;50.846;4.078;2022-07-05T11:42:09;23.80;99.90
20658;DHT22;10488;50.846;4.078;2022-07-05T11:44:36;24.30;99.90
20658;DHT22;10488;50.846;4.078;2022-07-05T11:47:03;24.40;99.90
20658;DHT22;10488;50.846;4.078;2022-07-05T11:49:29;24.40;99.90
20658;DHT22;10488;50.846;4.078;2022-07-05T11:52:01;24.30;99.90
20658;DHT22;10488;50.846;4.078;2022-07-05T11:54:33;24.00;99.90
20658;DHT22;10488;50.846;4.078;2022-07-05T11:57:02;24.70;99.90
20658;DHT22;10488;50.846;4.078;2022-07-05T11:59:28;24.20;99.90
20658;DHT22;10488;50.846;4.078;2022-07-05T12:01:54;24.50;99.90
20658;DHT22;10488;50.846;4.078;2022-07-05T12:04:26;25.00;99.90
20658;DHT22;10488;50.846;4.078;2022-07-05T12:06:52;25.40;99.90
20658;DHT22;10488;50.846;4.078;2022-07-05T12:09:29;24.70;99.90
20658;DHT22;10488;50.846;4.078;2022-07-05T12:12:19;25.20;99.90
20658;DHT22;10488;50.846;4.078;2022-07-05T12:15:04;25.90;99.90
20658;DHT22;10488;50.846;4.078;2022-07-05T12:17:30;25.80;99.90
20658;DHT22;10488;50.846;4.078;2022-07-05T12:19:55;26.10;99.90
20658;DHT22;10488;50.846;4.078;2022-07-05T12:22:31;25.70;99.90
20658;DHT22;10488;50.846;4.078;2022-07-05T12:24:58;24.70;99.90
20658;DHT22;10488;50.846;4.078;2022-07-05T12:27:28;24.50;99.90
20658;DHT22;10488;50.846;4.078;2022-07-05T12:29:55;24.80;99.90
20658;DHT22;10488;50.846;4.078;2022-07-05T12:32:21;24.80;99.90
20658;DHT22;10488;50.846;4.078;2022-07-05T12:34:47;25.10;99.90
20658;DHT22;10488;50.846;4.078;2022-07-05T12:37:23;25.50;99.90
20658;DHT22;10488;50.846;4.078;2022-07-05T12:39:49;26.10;99.90
20658;DHT22;10488;50.846;4.078;2022-07-05T12:42:38;26.10;99.90
20658;DHT22;10488;50.846;4.078;2022-07-05T12:45:15;25.60;99.90
20658;DHT22;10488;50.846;4.078;2022-07-05T12:47:55;24.80;99.90
20658;DHT22;10488;50.846;4.078;2022-07-05T12:50:22;24.90;99.90
20658;DHT22;10488;50.846;4.078;2022-07-05T12:53:03;24.40;99.90
20658;DHT22;10488;50.846;4.078;2022-07-05T12:55:50;24.20;99.90
20658;DHT22;10488;50.846;4.078;2022-07-05T13:04:15;25.40;99.90
20658;DHT22;10488;50.846;4.078;2022-07-05T13:06:50;25.90;99.90
20658;DHT22;10488;50.846;4.078;2022-07-05T13:12:17;25.70;99.90
20658;DHT22;10488;50.846;4.078;2022-07-05T13:14:49;25.80;99.90
20658;DHT22;10488;50.846;4.078;2022-07-05T13:17:17;25.20;99.90
20658;DHT22;10488;50.846;4.078;2022-07-05T13:19:44;25.20;99.90
20658;DHT22;10488;50.846;4.078;2022-07-05T13:22:11;25.30;99.90
20658;DHT22;10488;50.846;4.078;2022-07-05T13:24:37;24.60;99.90
20658;DHT22;10488;50.846;4.078;2022-07-05T13:27:04;24.50;99.90
20658;DHT22;10488;50.846;4.078;2022-07-05T13:29:30;24.70;99.90
20658;DHT22;10488;50.846;4.078;2022-07-05T13:31:56;25.00;99.90
20658;DHT22;10488;50.846;4.078;2022-07-05T13:34:22;25.30;99.90
20658;DHT22;10488;50.846;4.078;2022-07-05T13:36:52;25.20;99.90
20658;DHT22;10488;50.846;4.078;2022-07-05T13:39:22;24.80;99.90
20658;DHT22;10488;50.846;4.078;2022-07-05T13:41:49;24.90;99.90
20658;DHT22;10488;50.846;4.078;2022-07-05T13:44:15;24.70;99.90
20658;DHT22;10488;50.846;4.078;2022-07-05T13:46:40;24.40;99.90
20658;DHT22;10488;50.846;4.078;2022-07-05T13:49:06;24.60;99.90
20658;DHT22;10488;50.846;4.078;2022-07-05T13:51:31;24.30;99.90
20658;DHT22;10488;50.846;4.078;2022-07-05T13:53:57;24.30;99.90
20658;DHT22;10488;50.846;4.078;2022-07-05T13:56:24;24.00;99.90
20658;DHT22;10488;50.846;4.078;2022-07-05T13:58:51;23.50;99.90
20658;DHT22;10488;50.846;4.078;2022-07-05T14:01:17;23.50;99.90
20658;DHT22;10488;50.846;4.078;2022-07-05T14:03:45;23.30;99.90
20658;DHT22;10488;50.846;4.078;2022-07-05T14:06:11;22.90;99.90
20658;DHT22;10488;50.846;4.078;2022-07-05T14:08:36;22.60;99.90
20658;DHT22;10488;50.846;4.078;2022-07-05T14:11:02;22.60;99.90
20658;DHT22;10488;50.846;4.078;2022-07-05T14:13:29;23.00;99.90
20658;DHT22;10488;50.846;4.078;2022-07-05T14:15:54;22.80;99.90
20658;DHT22;10488;50.846;4.078;2022-07-05T14:18:21;22.60;99.90
20658;DHT22;10488;50.846;4.078;2022-07-05T14:20:47;22.60;99.90
20658;DHT22;10488;50.846;4.078;2022-07-05T14:23:14;22.30;99.90
20658;DHT22;10488;50.846;4.078;2022-07-05T14:25:41;22.30;99.90
20658;DHT22;10488;50.846;4.078;2022-07-05T14:28:07;22.30;99.90
20658;DHT22;10488;50.846;4.078;2022-07-05T14:30:34;22.50;99.90
20658;DHT22;10488;50.846;4.078;2022-07-05T14:33:00;22.60;99.90
20658;DHT22;10488;50.846;4.078;2022-07-05T14:35:26;22.90;99.90
20658;DHT22;10488;50.846;4.078;2022-07-05T14:37:53;22.70;99.90
20658;DHT22;10488;50.846;4.078;2022-07-05T14:40:19;22.60;99.90
20658;DHT22;10488;50.846;4.078;2022-07-05T14:42:45;22.70;99.90
20658;DHT22;10488;50.846;4.078;2022-07-05T14:45:10;22.20;99.90
20658;DHT22;10488;50.846;4.078;2022-07-05T14:47:36;22.20;99.90
20658;DHT22;10488;50.846;4.078;2022-07-05T14:50:02;21.80;99.90
20658;DHT22;10488;50.846;4.078;2022-07-05T14:52:29;21.90;99.90
20658;DHT22;10488;50.846;4.078;2022-07-05T14:54:56;21.70;99.90
20658;DHT22;10488;50.846;4.078;2022-07-05T14:57:22;22.00;99.90
20658;DHT22;10488;50.846;4.078;2022-07-05T14:59:47;22.30;99.90
20658;DHT22;10488;50.846;4.078;2022-07-05T15:02:13;22.60;99.90
20658;DHT22;10488;50.846;4.078;2022-07-05T15:04:40;22.70;99.90
20658;DHT22;10488;50.846;4.078;2022-07-05T15:07:06;22.30;99.90
20658;DHT22;10488;50.846;4.078;2022-07-05T15:09:32;22.40;99.90
20658;DHT22;10488;50.846;4.078;2022-07-05T15:11:57;22.30;99.90
20658;DHT22;10488;50.846;4.078;2022-07-05T15:14:23;21.80;99.90
20658;DHT22;10488;50.846;4.078;2022-07-05T15:16:49;21.90;99.90
20658;DHT22;10488;50.846;4.078;2022-07-05T15:19:14;21.80;99.90
20658;DHT22;10488;50.846;4.078;2022-07-05T15:21:40;21.50;99.90
20658;DHT22;10488;50.846;4.078;2022-07-05T15:24:06;21.60;99.90
20658;DHT22;10488;50.846;4.078;2022-07-05T15:26:32;21.50;99.90
20658;DHT22;10488;50.846;4.078;2022-07-05T15:29:08;21.50;99.90
20658;DHT22;10488;50.846;4.078;2022-07-05T15:31:35;21.50;99.90
20658;DHT22;10488;50.846;4.078;2022-07-05T15:34:01;21.60;99.90
20658;DHT22;10488;50.846;4.078;2022-07-05T15:36:28;21.30;99.90
20658;DHT22;10488;50.846;4.078;2022-07-05T15:39:02;21.10;99.90
20658;DHT22;10488;50.846;4.078;2022-07-05T15:41:29;21.20;99.90
20658;DHT22;10488;50.846;4.078;2022-07-05T15:43:55;21.00;99.90
20658;DHT22;10488;50.846;4.078;2022-07-05T15:46:21;21.40;99.90
20658;DHT22;10488;50.846;4.078;2022-07-05T15:48:47;21.60;99.90
20658;DHT22;10488;50.846;4.078;2022-07-05T15:51:18;21.70;99.90
20658;DHT22;10488;50.846;4.078;2022-07-05T15:53:44;21.50;99.90
20658;DHT22;10488;50.846;4.078;2022-07-05T15:56:10;21.40;99.90
20658;DHT22;10488;50.846;4.078;2022-07-05T15:58:36;21.30;99.90
20658;DHT22;10488;50.846;4.078;2022-07-05T16:01:03;21.50;99.90
20658;DHT22;10488;50.846;4.078;2022-07-05T16:03:30;21.60;99.90
20658;DHT22;10488;50.846;4.078;2022-07-05T16:05:58;21.50;99.90
20658;DHT22;10488;50.846;4.078;2022-07-05T16:08:28;21.30;99.90
20658;DHT22;10488;50.846;4.078;2022-07-05T16:10:54;21.00;99.90
20658;DHT22;10488;50.846;4.078;2022-07-05T16:13:21;21.00;99.90
20658;DHT22;10488;50.846;4.078;2022-07-05T16:15:47;21.10;99.90
20658;DHT22;10488;50.846;4.078;2022-07-05T16:18:32;21.10;99.90
20658;DHT22;10488;50.846;4.078;2022-07-05T16:20:58;21.20;99.90
20658;DHT22;10488;50.846;4.078;2022-07-05T16:23:27;21.00;99.90
20658;DHT22;10488;50.846;4.078;2022-07-05T16:25:53;21.10;99.90
20658;DHT22;10488;50.846;4.078;2022-07-05T16:28:19;21.10;99.90
20658;DHT22;10488;50.846;4.078;2022-07-05T16:30:45;21.20;99.90
20658;DHT22;10488;50.846;4.078;2022-07-05T16:33:11;21.10;99.90
20658;DHT22;10488;50.846;4.078;2022-07-05T16:35:37;20.90;99.90
20658;DHT22;10488;50.846;4.078;2022-07-05T16:38:02;21.10;99.90
20658;DHT22;10488;50.846;4.078;2022-07-05T16:40:28;21.10;99.90
20658;DHT22;10488;50.846;4.078;2022-07-05T16:42:54;20.80;99.90
20658;DHT22;10488;50.846;4.078;2022-07-05T16:45:20;20.70;99.90
20658;DHT22;10488;50.846;4.078;2022-07-05T16:47:46;21.00;99.90
20658;DHT22;10488;50.846;4.078;2022-07-05T16:50:12;21.20;99.90
20658;DHT22;10488;50.846;4.078;2022-07-05T16:52:38;20.60;99.90
20658;DHT22;10488;50.846;4.078;2022-07-05T16:55:06;20.50;99.90
20658;DHT22;10488;50.846;4.078;2022-07-05T16:57:32;20.50;99.90
20658;DHT22;10488;50.846;4.078;2022-07-05T16:59:58;20.70;99.90
20658;DHT22;10488;50.846;4.078;2022-07-05T17:02:24;20.60;99.90
20658;DHT22;10488;50.846;4.078;2022-07-05T17:04:50;20.50;99.90
20658;DHT22;10488;50.846;4.078;2022-07-05T17:07:16;20.40;99.90
20658;DHT22;10488;50.846;4.078;2022-07-05T17:09:42;20.40;99.90
20658;DHT22;10488;50.846;4.078;2022-07-05T17:12:07;20.50;99.90
20658;DHT22;10488;50.846;4.078;2022-07-05T17:14:34;20.70;99.90
20658;DHT22;10488;50.846;4.078;2022-07-05T17:17:00;20.80;99.90
20658;DHT22;10488;50.846;4.078;2022-07-05T17:19:25;20.60;99.90
20658;DHT22;10488;50.846;4.078;2022-07-05T17:21:51;20.20;99.90
20658;DHT22;10488;50.846;4.078;2022-07-05T17:24:16;20.10;99.90
20658;DHT22;10488;50.846;4.078;2022-07-05T17:26:43;20.10;99.90
20658;DHT22;10488;50.846;4.078;2022-07-05T17:29:08;20.30;99.90
20658;DHT22;10488;50.846;4.078;2022-07-05T17:31:34;20.20;99.90
20658;DHT22;10488;50.846;4.078;2022-07-05T17:34:00;20.20;99.90
20658;DHT22;10488;50.846;4.078;2022-07-05T17:36:27;20.20;99.90
20658;DHT22;10488;50.846;4.078;2022-07-05T17:38:52;20.00;99.90
20658;DHT22;10488;50.846;4.078;2022-07-05T17:41:18;20.20;99.90
20658;DHT22;10488;50.846;4.078;2022-07-05T17:43:46;20.30;99.90
20658;DHT22;10488;50.846;4.078;2022-07-05T17:46:18;19.70;99.90
20658;DHT22;10488;50.846;4.078;2022-07-05T17:48:46;19.90;99.90
20658;DHT22;10488;50.846;4.078;2022-07-05T17:51:12;20.00;99.90
20658;DHT22;10488;50.846;4.078;2022-07-05T17:53:41;20.10;99.90
20658;DHT22;10488;50.846;4.078;2022-07-05T17:56:08;19.60;99.90
20658;DHT22;10488;50.846;4.078;2022-07-05T17:58:34;19.40;99.90
20658;DHT22;10488;50.846;4.078;2022-07-05T18:01:00;19.30;99.90
20658;DHT22;10488;50.846;4.078;2022-07-05T18:03:26;19.40;99.90
20658;DHT22;10488;50.846;4.078;2022-07-05T18:05:52;19.60;99.90
20658;DHT22;10488;50.846;4.078;2022-07-05T18:08:18;19.60;99.90
20658;DHT22;10488;50.846;4.078;2022-07-05T18:10:45;19.40;99.90
20658;DHT22;10488;50.846;4.078;2022-07-05T18:13:11;19.40;99.90
20658;DHT22;10488;50.846;4.078;2022-07-05T18:15:38;19.30;99.90
20658;DHT22;10488;50.846;4.078;2022-07-05T18:18:07;19.50;99.90
20658;DHT22;10488;50.846;4.078;2022-07-05T18:20:34;19.40;99.90
20658;DHT22;10488;50.846;4.078;2022-07-05T18:23:00;19.30;99.90
20658;DHT22;10488;50.846;4.078;2022-07-05T18:25:26;19.00;99.90
20658;DHT22;10488;50.846;4.078;2022-07-05T18:27:52;19.10;99.90
20658;DHT22;10488;50.846;4.078;2022-07-05T18:30:18;19.00;99.90
20658;DHT22;10488;50.846;4.078;2022-07-05T18:32:43;19.10;99.90
20658;DHT22;10488;50.846;4.078;2022-07-05T18:35:10;19.00;99.90
20658;DHT22;10488;50.846;4.078;2022-07-05T18:37:36;19.00;99.90
20658;DHT22;10488;50.846;4.078;2022-07-05T18:40:03;19.10;99.90
20658;DHT22;10488;50.846;4.078;2022-07-05T18:42:30;19.00;99.90
20658;DHT22;10488;50.846;4.078;2022-07-05T18:44:55;19.10;99.90
20658;DHT22;10488;50.846;4.078;2022-07-05T18:47:21;19.20;99.90
20658;DHT22;10488;50.846;4.078;2022-07-05T18:49:47;19.10;99.90
20658;DHT22;10488;50.846;4.078;2022-07-05T18:52:12;18.90;99.90
20658;DHT22;10488;50.846;4.078;2022-07-05T18:54:38;18.90;99.90
20658;DHT22;10488;50.846;4.078;2022-07-05T18:57:04;18.70;99.90
20658;DHT22;10488;50.846;4.078;2022-07-05T18:59:30;18.70;99.90
20658;DHT22;10488;50.846;4.078;2022-07-05T19:01:55;18.90;99.90
20658;DHT22;10488;50.846;4.078;2022-07-05T19:04:21;18.80;99.90
20658;DHT22;10488;50.846;4.078;2022-07-05T19:06:47;18.70;99.90
20658;DHT22;10488;50.846;4.078;2022-07-05T19:09:32;18.60;99.90
20658;DHT22;10488;50.846;4.078;2022-07-05T19:12:16;18.60;99.90
20658;DHT22;10488;50.846;4.078;2022-07-05T19:15:00;18.50;99.90
20658;DHT22;10488;50.846;4.078;2022-07-05T19:17:26;18.30;99.90
20658;DHT22;10488;50.846;4.078;2022-07-05T19:19:52;18.40;99.90
20658;DHT22;10488;50.846;4.078;2022-07-05T19:22:18;18.50;99.90
20658;DHT22;10488;50.846;4.078;2022-07-05T19:24:51;18.40;99.90
20658;DHT22;10488;50.846;4.078;2022-07-05T19:27:17;18.40;99.90
20658;DHT22;10488;50.846;4.078;2022-07-05T19:29:43;18.50;99.90
20658;DHT22;10488;50.846;4.078;2022-07-05T19:32:09;18.30;99.90
20658;DHT22;10488;50.846;4.078;2022-07-05T19:34:35;18.10;99.90
20658;DHT22;10488;50.846;4.078;2022-07-05T19:37:02;17.90;99.90
20658;DHT22;10488;50.846;4.078;2022-07-05T19:39:28;17.90;99.90
20658;DHT22;10488;50.846;4.078;2022-07-05T19:41:54;17.60;99.90
20658;DHT22;10488;50.846;4.078;2022-07-05T19:44:20;17.50;99.90
20658;DHT22;10488;50.846;4.078;2022-07-05T19:46:46;17.50;99.90
20658;DHT22;10488;50.846;4.078;2022-07-05T19:49:12;17.60;99.90
20658;DHT22;10488;50.846;4.078;2022-07-05T19:51:38;17.50;99.90
20658;DHT22;10488;50.846;4.078;2022-07-05T19:54:04;17.40;99.90
20658;DHT22;10488;50.846;4.078;2022-07-05T19:56:30;17.20;99.90
20658;DHT22;10488;50.846;4.078;2022-07-05T19:58:56;17.00;99.90
20658;DHT22;10488;50.846;4.078;2022-07-05T20:01:24;16.80;99.90
20658;DHT22;10488;50.846;4.078;2022-07-05T20:03:57;16.50;99.90
20658;DHT22;10488;50.846;4.078;2022-07-05T20:06:23;16.50;99.90
20658;DHT22;10488;50.846;4.078;2022-07-05T20:08:50;16.50;99.90
20658;DHT22;10488;50.846;4.078;2022-07-05T20:11:16;16.50;99.90
20658;DHT22;10488;50.846;4.078;2022-07-05T20:13:42;16.50;99.90
20658;DHT22;10488;50.846;4.078;2022-07-05T20:16:08;16.50;99.90
20658;DHT22;10488;50.846;4.078;2022-07-05T20:18:33;16.40;99.90
20658;DHT22;10488;50.846;4.078;2022-07-05T20:21:00;16.40;99.90
20658;DHT22;10488;50.846;4.078;2022-07-05T20:23:29;16.20;99.90
20658;DHT22;10488;50.846;4.078;2022-07-05T20:25:55;16.10;99.90
20658;DHT22;10488;50.846;4.078;2022-07-05T20:28:21;15.90;99.90
20658;DHT22;10488;50.846;4.078;2022-07-05T20:30:47;15.80;99.90
20658;DHT22;10488;50.846;4.078;2022-07-05T20:33:13;15.70;99.90
20658;DHT22;10488;50.846;4.078;2022-07-05T20:35:39;15.60;99.90
20658;DHT22;10488;50.846;4.078;2022-07-05T20:38:05;15.40;99.90
20658;DHT22;10488;50.846;4.078;2022-07-05T20:40:31;15.50;99.90
20658;DHT22;10488;50.846;4.078;2022-07-05T20:42:57;15.40;99.90
20658;DHT22;10488;50.846;4.078;2022-07-05T20:45:23;15.40;99.90
20658;DHT22;10488;50.846;4.078;2022-07-05T20:47:49;15.50;99.90
20658;DHT22;10488;50.846;4.078;2022-07-05T20:50:14;15.30;99.90
20658;DHT22;10488;50.846;4.078;2022-07-05T20:52:40;15.20;99.90
20658;DHT22;10488;50.846;4.078;2022-07-05T20:55:06;15.10;99.90
20658;DHT22;10488;50.846;4.078;2022-07-05T20:57:32;15.10;99.90
20658;DHT22;10488;50.846;4.078;2022-07-05T20:59:58;15.00;99.90
20658;DHT22;10488;50.846;4.078;2022-07-05T21:02:24;15.10;99.90
20658;DHT22;10488;50.846;4.078;2022-07-05T21:04:50;15.00;99.90
20658;DHT22;10488;50.846;4.078;2022-07-05T21:07:16;14.90;99.90
20658;DHT22;10488;50.846;4.078;2022-07-05T21:09:45;14.70;99.90
20658;DHT22;10488;50.846;4.078;2022-07-05T21:12:11;14.70;99.90
20658;DHT22;10488;50.846;4.078;2022-07-05T21:14:38;14.80;99.90
20658;DHT22;10488;50.846;4.078;2022-07-05T21:17:04;14.70;99.90
20658;DHT22;10488;50.846;4.078;2022-07-05T21:19:32;14.70;99.90
20658;DHT22;10488;50.846;4.078;2022-07-05T21:21:59;14.70;99.90
20658;DHT22;10488;50.846;4.078;2022-07-05T21:24:26;14.70;99.90
20658;DHT22;10488;50.846;4.078;2022-07-05T21:26:52;14.50;99.90
20658;DHT22;10488;50.846;4.078;2022-07-05T21:29:18;14.40;99.90
20658;DHT22;10488;50.846;4.078;2022-07-05T21:31:44;14.40;99.90
20658;DHT22;10488;50.846;4.078;2022-07-05T21:34:09;14.50;99.90
20658;DHT22;10488;50.846;4.078;2022-07-05T21:36:35;14.40;99.90
20658;DHT22;10488;50.846;4.078;2022-07-05T21:39:01;14.30;99.90
20658;DHT22;10488;50.846;4.078;2022-07-05T21:41:27;14.30;99.90
20658;DHT22;10488;50.846;4.078;2022-07-05T21:43:53;14.40;99.90
20658;DHT22;10488;50.846;4.078;2022-07-05T21:46:20;14.40;99.90
20658;DHT22;10488;50.846;4.078;2022-07-05T21:48:46;14.30;99.90
20658;DHT22;10488;50.846;4.078;2022-07-05T21:51:12;14.20;99.90
20658;DHT22;10488;50.846;4.078;2022-07-05T21:53:38;14.10;99.90
20658;DHT22;10488;50.846;4.078;2022-07-05T21:56:04;14.00;99.90
20658;DHT22;10488;50.846;4.078;2022-07-05T21:58:30;14.30;99.90
20658;DHT22;10488;50.846;4.078;2022-07-05T22:01:16;14.40;99.90
20658;DHT22;10488;50.846;4.078;2022-07-05T22:04:00;14.10;99.90
20658;DHT22;10488;50.846;4.078;2022-07-05T22:06:44;14.10;99.90